createdAt,value
2023-06-15T00:00:12.739Z,18.39
2023-06-15T00:03:15.638Z,18.44
2023-06-15T00:06:18.422Z,18.41
2023-06-15T00:09:22.336Z,18.50
2023-06-15T00:12:24.972Z,18.53
2023-06-15T00:15:28.565Z,18.49
2023-06-15T00:18:31.476Z,18.47
2023-06-15T00:21:35.116Z,18.41
2023-06-15T00:24:39.045Z,18.46
2023-06-15T00:27:41.591Z,18.52
2023-06-15T00:30:44.151Z,18.48
2023-06-15T00:33:46.829Z,18.51
2023-06-15T00:36:49.532Z,18.59
2023-06-15T00:39:53.683Z,18.62
2023-06-15T00:42:56.294Z,18.57
2023-06-15T00:45:59.038Z,18.49
2023-06-15T00:49:01.779Z,18.47
2023-06-15T00:52:04.920Z,18.46
2023-06-15T00:55:13.215Z,18.42
2023-06-15T00:58:16.492Z,18.41
2023-06-15T01:01:19.481Z,18.41
2023-06-15T01:04:25.657Z,18.36
2023-06-15T01:07:29.119Z,18.30
2023-06-15T01:10:34.869Z,18.22
2023-06-15T01:13:39.948Z,18.11
2023-06-15T01:16:44.843Z,18.08
2023-06-15T01:19:58.599Z,18.09
2023-06-15T01:23:03.270Z,18.02
2023-06-15T01:26:08.582Z,17.90
2023-06-15T01:29:11.897Z,17.79
2023-06-15T01:32:14.524Z,17.72
2023-06-15T01:35:17.514Z,17.63
2023-06-15T01:38:23.932Z,17.55
2023-06-15T01:41:29.024Z,17.53
2023-06-15T01:44:31.854Z,17.47
2023-06-15T01:47:34.660Z,17.45
2023-06-15T01:50:37.850Z,17.41
2023-06-15T01:53:40.535Z,17.31
2023-06-15T01:56:44.788Z,17.27
2023-06-15T01:59:47.666Z,17.21
2023-06-15T02:02:50.502Z,17.18
2023-06-15T02:05:53.037Z,17.12
2023-06-15T02:08:55.808Z,17.11
2023-06-15T02:12:00.160Z,17.05
2023-06-15T02:15:03.650Z,16.96
2023-06-15T02:18:13.102Z,16.87
2023-06-15T02:21:15.861Z,16.78
2023-06-15T02:24:19.460Z,16.71
2023-06-15T02:27:24.227Z,16.75
2023-06-15T02:30:27.185Z,16.74
2023-06-15T02:33:29.724Z,16.76
2023-06-15T02:36:32.339Z,16.70
2023-06-15T02:39:35.122Z,16.62
2023-06-15T02:42:39.615Z,16.60
2023-06-15T02:45:42.634Z,16.58
2023-06-15T02:48:45.502Z,16.51
2023-06-15T02:51:48.422Z,16.54
2023-06-15T02:54:51.151Z,16.47
2023-06-15T02:57:55.079Z,16.42
2023-06-15T03:00:57.744Z,16.36
2023-06-15T03:04:00.689Z,16.32
2023-06-15T03:07:04.971Z,16.30
2023-06-15T03:10:08.843Z,16.30
2023-06-15T03:13:13.314Z,16.30
2023-06-15T03:16:16.705Z,16.24
2023-06-15T03:19:19.686Z,16.23
2023-06-15T03:22:25.204Z,16.19
2023-06-15T03:25:30.761Z,16.24
2023-06-15T03:28:39.083Z,16.24
2023-06-15T03:31:42.850Z,16.27
2023-06-15T03:34:47.307Z,16.28
2023-06-15T03:37:50.612Z,16.29
2023-06-15T03:40:53.154Z,16.36
2023-06-15T03:43:56.993Z,16.42
2023-06-15T03:46:59.527Z,16.51
2023-06-15T03:50:03.002Z,16.66
2023-06-15T03:53:06.781Z,16.78
2023-06-15T03:56:09.410Z,16.95
2023-06-15T03:59:13.622Z,17.11
2023-06-15T04:02:16.466Z,17.30
2023-06-15T04:05:21.043Z,17.55
2023-06-15T04:08:24.589Z,17.79
2023-06-15T04:11:27.581Z,17.97
2023-06-15T04:14:32.362Z,18.12
2023-06-15T04:17:35.123Z,18.33
2023-06-15T04:20:38.671Z,18.49
2023-06-15T04:23:44.430Z,18.72
2023-06-15T04:26:47.433Z,18.94
2023-06-15T04:29:54.208Z,19.18
2023-06-15T04:33:00.982Z,19.43
2023-06-15T04:36:04.507Z,19.66
2023-06-15T04:39:07.252Z,19.90
2023-06-15T04:42:13.034Z,20.15
2023-06-15T04:45:17.712Z,20.36
2023-06-15T04:48:20.700Z,20.49
2023-06-15T04:51:23.324Z,20.70
2023-06-15T04:54:26.324Z,20.78
2023-06-15T04:57:30.004Z,20.83
2023-06-15T05:00:34.122Z,20.86
2023-06-15T05:03:36.876Z,20.97
2023-06-15T05:06:39.626Z,20.96
2023-06-15T05:09:43.206Z,20.88
2023-06-15T05:12:45.785Z,20.80
2023-06-15T05:15:50.075Z,20.78
2023-06-15T05:18:54.075Z,20.78
2023-06-15T05:22:00.415Z,20.73
2023-06-15T05:25:04.401Z,20.67
2023-06-15T05:28:07.412Z,20.70
2023-06-15T05:31:11.723Z,20.72
2023-06-15T05:34:14.665Z,20.71
2023-06-15T05:37:17.159Z,20.72
2023-06-15T05:40:19.840Z,20.78
2023-06-15T05:43:22.695Z,20.74
2023-06-15T05:46:26.741Z,20.73
2023-06-15T05:49:29.659Z,20.77
2023-06-15T05:52:32.209Z,20.73
2023-06-15T05:55:35.360Z,20.79
2023-06-15T05:58:38.158Z,20.89
2023-06-15T06:01:42.410Z,20.98
2023-06-15T06:04:44.987Z,21.00
2023-06-15T06:07:48.031Z,21.04
2023-06-15T06:10:50.706Z,21.18
2023-06-15T06:13:53.368Z,21.29
2023-06-15T06:16:57.571Z,21.31
2023-06-15T06:20:00.238Z,21.46
2023-06-15T06:23:04.262Z,21.47
2023-06-15T06:26:06.830Z,21.47
2023-06-15T06:29:09.450Z,21.65
2023-06-15T06:32:13.416Z,21.52
2023-06-15T06:35:16.473Z,21.63
2023-06-15T06:38:19.361Z,21.76
2023-06-15T06:41:22.705Z,21.88
2023-06-15T06:44:25.607Z,22.02
2023-06-15T06:47:29.769Z,22.08
2023-06-15T06:50:32.492Z,22.12
2023-06-15T06:53:35.075Z,22.23
2023-06-15T06:56:37.826Z,22.26
2023-06-15T06:59:44.014Z,22.39
2023-06-15T07:02:48.534Z,22.42
2023-06-15T07:05:51.269Z,22.54
2023-06-15T07:08:54.121Z,22.60
2023-06-15T07:11:56.940Z,22.81
2023-06-15T07:14:59.617Z,23.02
2023-06-15T07:18:03.735Z,23.20
2023-06-15T07:21:06.461Z,23.23
2023-06-15T07:24:09.202Z,23.24
2023-06-15T07:27:11.867Z,23.41
2023-06-15T07:30:16.152Z,23.45
2023-06-15T07:33:20.754Z,23.53
2023-06-15T07:36:23.386Z,23.56
2023-06-15T07:39:26.057Z,23.59
2023-06-15T07:42:28.783Z,23.58
2023-06-15T07:45:31.565Z,23.69
2023-06-15T07:48:35.646Z,23.52
2023-06-15T07:51:47.586Z,23.68
2023-06-15T07:54:56.685Z,23.73
2023-06-15T07:57:59.516Z,24.05
2023-06-15T08:01:02.179Z,24.25
2023-06-15T08:04:07.037Z,24.31
2023-06-15T08:07:09.807Z,24.24
2023-06-15T08:10:13.050Z,24.46
2023-06-15T08:13:16.042Z,24.63
2023-06-15T08:16:18.532Z,24.67
2023-06-15T08:19:22.423Z,24.87
2023-06-15T08:22:25.211Z,24.91
2023-06-15T08:25:27.786Z,24.88
2023-06-15T08:28:35.831Z,25.01
2023-06-15T08:31:44.201Z,25.01
2023-06-15T08:34:48.122Z,25.08
2023-06-15T08:37:51.000Z,25.34
2023-06-15T08:40:53.620Z,25.43
2023-06-15T08:43:56.393Z,25.49
2023-06-15T08:46:59.196Z,25.60
2023-06-15T08:50:04.859Z,25.54
2023-06-15T08:53:08.525Z,25.72
2023-06-15T08:56:13.098Z,25.75
2023-06-15T08:59:15.834Z,25.84
2023-06-15T09:02:21.873Z,25.94
2023-06-15T09:05:27.343Z,25.97
2023-06-15T09:08:30.205Z,26.05
2023-06-15T09:11:41.017Z,26.19
2023-06-15T09:14:44.676Z,26.05
2023-06-15T09:17:47.463Z,26.24
2023-06-15T09:20:51.721Z,26.02
2023-06-15T09:23:54.373Z,26.04
2023-06-15T09:26:57.896Z,26.26
2023-06-15T09:30:04.763Z,26.44
2023-06-15T09:33:14.435Z,25.88
2023-06-15T09:36:18.624Z,25.36
2023-06-15T09:39:24.037Z,25.23
2023-06-15T09:42:28.752Z,25.14
2023-06-15T09:45:31.475Z,25.32
2023-06-15T09:48:34.494Z,25.97
2023-06-15T09:51:38.636Z,26.46
2023-06-15T09:54:41.639Z,26.83
2023-06-15T09:57:44.039Z,26.88
2023-06-15T10:00:46.669Z,27.21
2023-06-15T10:03:54.206Z,27.39
2023-06-15T10:07:01.407Z,27.69
2023-06-15T10:10:04.720Z,27.97
2023-06-15T10:13:08.223Z,27.87
2023-06-15T10:16:11.805Z,27.47
2023-06-15T10:19:16.440Z,27.34
2023-06-15T10:22:21.023Z,27.52
2023-06-15T10:25:23.885Z,26.86
2023-06-15T10:28:27.129Z,27.15
2023-06-15T10:31:34.056Z,27.80
2023-06-15T10:34:43.191Z,28.38
2023-06-15T10:37:52.721Z,28.91
2023-06-15T10:40:55.373Z,29.20
2023-06-15T10:43:58.127Z,28.91
2023-06-15T10:47:07.682Z,28.53
2023-06-15T10:50:17.161Z,28.81
2023-06-15T10:53:26.006Z,29.50
2023-06-15T10:56:29.657Z,29.84
2023-06-15T10:59:39.906Z,29.94
2023-06-15T11:03:00.514Z,30.21
2023-06-15T11:06:05.752Z,31.12
2023-06-15T11:09:15.208Z,31.42
2023-06-15T11:12:37.422Z,31.53
2023-06-15T11:15:41.786Z,31.16
2023-06-15T11:18:56.848Z,30.96
2023-06-15T11:22:01.452Z,31.32
2023-06-15T11:25:06.689Z,31.46
2023-06-15T11:28:17.176Z,30.77
2023-06-15T11:31:26.199Z,30.62
2023-06-15T11:34:28.967Z,30.42
2023-06-15T11:37:31.743Z,30.95
2023-06-15T11:40:35.941Z,31.47
2023-06-15T11:43:41.418Z,32.14
2023-06-15T11:46:44.004Z,32.16
2023-06-15T11:49:47.135Z,31.97
2023-06-15T11:52:49.831Z,31.04
2023-06-15T11:55:54.191Z,30.91
2023-06-15T11:58:56.905Z,31.54
2023-06-15T12:01:59.950Z,30.70
2023-06-15T12:05:03.980Z,31.27
2023-06-15T12:08:07.850Z,32.33
2023-06-15T12:11:11.926Z,32.68
2023-06-15T12:14:17.656Z,32.52
2023-06-15T12:17:28.291Z,32.77
2023-06-15T12:20:31.006Z,32.41
2023-06-15T12:23:35.566Z,32.29
2023-06-15T12:26:39.625Z,32.17
2023-06-15T12:29:42.389Z,32.14
2023-06-15T12:32:45.943Z,32.45
2023-06-15T12:35:52.588Z,32.61
2023-06-15T12:38:55.273Z,32.52
2023-06-15T12:42:03.649Z,31.81
2023-06-15T12:45:07.758Z,32.39
2023-06-15T12:48:10.576Z,32.08
2023-06-15T12:51:13.362Z,32.78
2023-06-15T12:54:16.038Z,33.15
2023-06-15T12:57:20.237Z,33.69
2023-06-15T13:00:25.144Z,34.22
2023-06-15T13:03:28.795Z,34.56
2023-06-15T13:06:31.581Z,34.88
2023-06-15T13:09:34.245Z,33.87
2023-06-15T13:12:38.298Z,34.03
2023-06-15T13:15:41.961Z,34.79
2023-06-15T13:18:44.708Z,33.77
2023-06-15T13:21:47.711Z,33.55
2023-06-15T13:24:50.520Z,33.52
2023-06-15T13:27:54.512Z,33.75
2023-06-15T13:30:57.344Z,34.46
2023-06-15T13:34:00.174Z,33.45
2023-06-15T13:37:02.825Z,33.22
2023-06-15T13:40:07.720Z,34.25
2023-06-15T13:43:11.992Z,33.06
2023-06-15T13:46:14.673Z,32.02
2023-06-15T13:49:17.495Z,32.05
2023-06-15T13:52:20.400Z,32.74
2023-06-15T13:55:23.150Z,38.15
2023-06-15T13:58:27.158Z,39.02
2023-06-15T14:01:29.862Z,34.73
2023-06-15T14:04:33.273Z,35.96
2023-06-15T14:07:38.489Z,35.55
2023-06-15T14:10:41.150Z,41.03
2023-06-15T14:13:49.842Z,45.87
2023-06-15T14:16:53.593Z,50.78
2023-06-15T14:19:56.264Z,50.78
2023-06-15T14:22:58.963Z,52.78
2023-06-15T14:26:01.952Z,54.18
2023-06-15T14:29:05.941Z,53.40
2023-06-15T14:32:09.248Z,51.92
2023-06-15T14:35:12.674Z,43.12
2023-06-15T14:38:15.646Z,37.57
2023-06-15T14:41:18.369Z,35.95
2023-06-15T14:44:22.538Z,35.08
2023-06-15T14:47:25.590Z,37.09
2023-06-15T14:50:28.450Z,40.87
2023-06-15T14:53:31.490Z,46.09
2023-06-15T14:56:34.797Z,47.52
2023-06-15T14:59:38.914Z,50.52
2023-06-15T15:02:42.244Z,52.29
2023-06-15T15:05:45.217Z,52.95
2023-06-15T15:08:49.818Z,52.89
2023-06-15T15:11:52.403Z,46.18
2023-06-15T15:14:56.419Z,48.11
2023-06-15T15:17:59.214Z,44.67
2023-06-15T15:21:02.173Z,49.37
2023-06-15T15:24:05.871Z,52.39
2023-06-15T15:27:08.659Z,54.05
2023-06-15T15:30:13.458Z,52.71
2023-06-15T15:33:16.228Z,54.20
2023-06-15T15:36:18.884Z,53.52
2023-06-15T15:39:21.867Z,54.84
2023-06-15T15:42:24.864Z,55.98
2023-06-15T15:45:29.980Z,55.38
2023-06-15T15:48:33.052Z,47.36
2023-06-15T15:51:36.518Z,44.91
2023-06-15T15:54:39.362Z,45.18
2023-06-15T15:57:42.899Z,46.85
2023-06-15T16:00:46.872Z,50.79
2023-06-15T16:03:49.724Z,53.21
2023-06-15T16:06:52.478Z,52.49
2023-06-15T16:09:55.418Z,50.37
2023-06-15T16:12:58.198Z,50.10
2023-06-15T16:16:21.010Z,49.72
2023-06-15T16:19:24.953Z,45.56
2023-06-15T16:22:27.784Z,46.69
2023-06-15T16:25:30.399Z,50.42
2023-06-15T16:28:33.698Z,47.04
2023-06-15T16:31:37.806Z,48.69
2023-06-15T16:34:42.370Z,51.63
2023-06-15T16:37:45.715Z,51.84
2023-06-15T16:40:49.107Z,53.37
2023-06-15T16:43:52.162Z,51.28
2023-06-15T16:46:56.285Z,51.71
2023-06-15T16:49:59.990Z,51.38
2023-06-15T16:53:03.368Z,52.30
2023-06-15T16:56:06.921Z,52.36
2023-06-15T16:59:10.008Z,52.87
2023-06-15T17:02:15.491Z,53.17
2023-06-15T17:05:18.166Z,53.46
2023-06-15T17:08:20.954Z,53.58
2023-06-15T17:11:23.832Z,51.74
2023-06-15T17:14:27.294Z,49.17
2023-06-15T17:17:31.301Z,47.37
2023-06-15T17:20:34.370Z,47.22
2023-06-15T17:23:36.999Z,45.61
2023-06-15T17:26:41.173Z,38.34
2023-06-15T17:29:45.278Z,35.46
2023-06-15T17:32:49.276Z,33.76
2023-06-15T17:35:52.030Z,33.08
2023-06-15T17:38:54.713Z,32.26
2023-06-15T17:41:57.948Z,31.42
2023-06-15T17:45:02.040Z,30.92
2023-06-15T17:48:06.596Z,30.49
2023-06-15T17:51:09.224Z,30.26
2023-06-15T17:54:11.842Z,30.09
2023-06-15T17:57:15.007Z,29.81
2023-06-15T18:00:18.915Z,29.61
2023-06-15T18:03:23.160Z,29.29
2023-06-15T18:06:25.854Z,29.16
2023-06-15T18:09:28.345Z,29.01
2023-06-15T18:12:31.168Z,28.83
2023-06-15T18:15:35.188Z,28.72
2023-06-15T18:18:39.369Z,28.56
2023-06-15T18:21:42.176Z,28.47
2023-06-15T18:24:44.773Z,28.22
2023-06-15T18:27:47.225Z,28.03
2023-06-15T18:30:50.046Z,27.86
2023-06-15T18:33:55.110Z,27.71
2023-06-15T18:36:58.963Z,27.61
2023-06-15T18:40:01.965Z,27.40
2023-06-15T18:43:04.640Z,27.23
2023-06-15T18:46:07.589Z,27.07
2023-06-15T18:49:14.403Z,26.90
2023-06-15T18:52:17.188Z,26.72
2023-06-15T18:55:20.471Z,26.53
2023-06-15T18:58:24.488Z,26.44
2023-06-15T19:01:27.248Z,26.27
2023-06-15T19:04:31.072Z,26.10
2023-06-15T19:07:33.678Z,25.96
2023-06-15T19:10:36.466Z,25.80
2023-06-15T19:13:38.923Z,25.69
2023-06-15T19:16:41.447Z,25.53
2023-06-15T19:19:46.322Z,25.37
2023-06-15T19:22:48.874Z,25.23
2023-06-15T19:25:52.219Z,25.04
2023-06-15T19:28:54.931Z,24.88
2023-06-15T19:31:57.804Z,24.72
2023-06-15T19:35:01.612Z,24.61
2023-06-15T19:38:04.204Z,24.51
2023-06-15T19:41:07.121Z,24.43
2023-06-15T19:44:09.677Z,24.30
2023-06-15T19:47:12.933Z,24.14
2023-06-15T19:50:17.497Z,23.98
2023-06-15T19:53:20.283Z,23.84
2023-06-15T19:56:23.488Z,23.77
2023-06-15T19:59:26.297Z,23.70
2023-06-15T20:02:28.945Z,23.63
2023-06-15T20:05:33.572Z,23.41
2023-06-15T20:08:37.462Z,23.25
2023-06-15T20:11:40.240Z,23.05
2023-06-15T20:14:43.122Z,22.91
2023-06-15T20:17:46.082Z,22.74
2023-06-15T20:20:50.160Z,22.48
2023-06-15T20:23:52.863Z,22.40
2023-06-15T20:26:55.566Z,22.30
2023-06-15T20:29:58.244Z,22.16
2023-06-15T20:33:01.088Z,22.08
2023-06-15T20:36:06.644Z,21.95
2023-06-15T20:39:09.153Z,21.87
2023-06-15T20:42:12.613Z,21.87
2023-06-15T20:45:15.436Z,21.74
2023-06-15T20:48:18.197Z,21.67
2023-06-15T20:51:22.478Z,21.56
2023-06-15T20:54:25.624Z,21.40
2023-06-15T20:57:28.155Z,21.29
2023-06-15T21:00:30.971Z,21.23
2023-06-15T21:03:34.126Z,21.16
2023-06-15T21:06:38.229Z,21.09
2023-06-15T21:09:42.274Z,21.04
2023-06-15T21:12:45.090Z,21.07
2023-06-15T21:15:48.161Z,21.04
2023-06-15T21:18:50.955Z,20.96
2023-06-15T21:21:55.922Z,20.88
2023-06-15T21:24:58.783Z,20.83
2023-06-15T21:28:01.339Z,20.81
2023-06-15T21:31:04.360Z,20.76
2023-06-15T21:34:07.381Z,20.73
2023-06-15T21:37:11.812Z,20.68
2023-06-15T21:40:14.658Z,20.66
2023-06-15T21:43:17.733Z,20.64
2023-06-15T21:46:20.792Z,20.56
2023-06-15T21:49:23.637Z,20.51
2023-06-15T21:52:28.217Z,20.49
2023-06-15T21:55:31.381Z,20.51
2023-06-15T21:58:33.823Z,20.44
2023-06-15T22:01:36.774Z,20.38
2023-06-15T22:04:40.043Z,20.36
2023-06-15T22:07:44.814Z,20.40
2023-06-15T22:10:48.044Z,20.34
2023-06-15T22:13:50.595Z,20.27
2023-06-15T22:16:53.656Z,20.17
2023-06-15T22:19:58.459Z,20.12
2023-06-15T22:23:02.822Z,20.07
2023-06-15T22:26:06.074Z,20.02
2023-06-15T22:29:09.389Z,19.91
2023-06-15T22:32:12.104Z,19.83
2023-06-15T22:35:14.855Z,19.76
2023-06-15T22:38:18.789Z,19.75
2023-06-15T22:41:22.796Z,19.82
2023-06-15T22:44:25.630Z,19.87
2023-06-15T22:47:29.602Z,19.88
2023-06-15T22:50:33.386Z,19.86
2023-06-15T22:53:37.628Z,19.81
2023-06-15T22:56:40.587Z,19.78
2023-06-15T22:59:44.691Z,19.76
2023-06-15T23:02:47.319Z,19.71
2023-06-15T23:05:50.269Z,19.66
2023-06-15T23:08:54.735Z,19.57
2023-06-15T23:11:57.854Z,19.48
2023-06-15T23:15:01.190Z,19.43
2023-06-15T23:18:05.349Z,19.37
2023-06-15T23:21:10.288Z,19.34
2023-06-15T23:24:14.383Z,19.29
2023-06-15T23:27:18.105Z,19.22
2023-06-15T23:30:21.813Z,19.13
2023-06-15T23:33:24.497Z,18.98
2023-06-15T23:36:27.361Z,19.01
2023-06-15T23:39:31.743Z,18.96
2023-06-15T23:42:34.437Z,18.93
2023-06-15T23:45:37.163Z,18.90
2023-06-15T23:48:40.146Z,18.95
2023-06-15T23:51:42.820Z,18.92
2023-06-15T23:54:46.858Z,18.87
2023-06-15T23:57:49.488Z,18.75
